AirNav   Textron
 
 552 users online  

M95 Richard Arthur Field Airport
Fayette, Alabama, USA


FAA INFORMATION EFFECTIVE 14 SEPTEMBER 2017

Location

FAA Identifier: M95
Lat/Long: 33-42-32.7789N / 087-48-54.7521W
33-42.546315N / 087-48.912535W
33.7091053 / -87.8152089
(estimated)
Elevation: 357.1 ft. / 108.8 m (surveyed)
Variation: 00E (1990)
From city: 3 miles NE of FAYETTE, AL
Time zone: UTC -5 (UTC -6 during Standard Time)
Zip code: 35555

Airport Operations

Airport use: Open to the public
Activation date: 10/1946
Control tower: no
ARTCC: MEMPHIS CENTER
FSS: ANNISTON FLIGHT SERVICE STATION
NOTAMs facility: ANB (NOTAM-D service available)
Attendance: MON-FRI 0800-1200
Wind indicator: lighted
Segmented circle: yes
Lights: ACTVT MIRL RY 18/36, PAPI RYS 18 & 36 AND & TWY LGTS - CTAF.
Beacon: white-green (lighted land airport)
Operates sunset to sunrise.

Airport Communications

CTAF/UNICOM: 122.8
COLUMBUS APPROACH: 126.075
COLUMBUS DEPARTURE: 126.075
  • APCH/DEP SERVICE PRVDD BY MEMPHIS ARTCC ON FREQS 127.1/269.4 (COLUMBUS RCAG) WHEN COLUMBUS APCH CTL CLSD.

Nearby radio navigation aids

VOR radial/distance  VOR name  Freq  Var
LDKr330/30.4CRIMSON VORTAC117.8003E
HABr160/31.0HAMILTON VORTAC110.4002E
CBMr083/31.4CALEDONIA VORTAC115.2000E
IGBr065/37.4BIGBEE VORTAC116.2004E
OKWr315/40.0BROOKWOOD VORTAC111.0000E

Airport Services

Fuel available: 100LL JET-A
Parking: tiedowns
Bottled oxygen: NONE
Bulk oxygen: NONE

Runway Information

Runway 18/36

Dimensions: 5008 x 80 ft. / 1526 x 24 m
Surface: asphalt, in fair condition
Weight bearing capacity: 
Single wheel: 15.0
Runway edge lights: medium intensity
RUNWAY 18  RUNWAY 36
Latitude: 33-42.958767N33-42.133863N
Longitude: 087-48.890148W087-48.934920W
Elevation: 357.1 ft.330.6 ft.
Gradient: 0.7%0.7%
Traffic pattern: leftleft
Runway heading: 183003
Markings: nonprecision, in fair conditionnonprecision, in fair condition
Visual slope indicator: 2-light PAPI on left (3.00 degrees glide path)2-light PAPI on left (3.00 degrees glide path)
Touchdown point: yes, no lightsyes, no lights
Obstructions: 83 ft. trees, 1299 ft. from runway, 178 ft. left of centerline, 13:1 slope to clear29 ft. trees, 1210 ft. from runway, 184 ft. right of centerline, 34:1 slope to clear

Airport Ownership and Management from official FAA records

Ownership: Publicly-owned
Owner: CITY OF FAYETTE
203 TEMPLE AVE NORTH
FAYETTE, AL 35555
Phone 205-932-5367
Manager: JIM HAYRES
100 21ST STREET NORTH EAST
FAYETTE, AL 35555
Phone 205-932-3819

Airport Operational Statistics

Aircraft based on the field: 11
Single engine airplanes: 11
    
Aircraft operations: avg 42/day *
85% transient general aviation
15% local general aviation
* for 12-month period ending 24 February 2017

Additional Remarks

TWY LGTS FOR TWY TURNOFF ONLY.
DEER ON & INVOF ARPT.

Instrument Procedures

NOTE: All procedures below are presented as PDF files. If you need a reader for these files, you should download the free Adobe Reader.

NOT FOR NAVIGATION. Please procure official charts for flight.
FAA instrument procedures published for use between 14 September 2017 at 0901Z and 12 October 2017 at 0900Z.

 
IAPs - Instrument Approach Procedures
RNAV (GPS) RWY 18   download (203KB)
RNAV (GPS) RWY 36   download (209KB)
NOTE: Special Take-Off Minimums/Departure Procedures apply   download (189KB)

Other nearby airports with instrument procedures:

M55 - Lamar County Airport (17 nm NW)
3M8 - North Pickens Airport (22 nm SW)
KHAB - Marion County-Rankin Fite Airport (26 nm N)
KJFX - Walker County Airport-Bevill Field (28 nm NE)
KTCL - Tuscaloosa Regional Airport (31 nm S)
 
Loc | Ops | Rwys | IFR | FBO | Links
Com | Nav | Svcs | Stats | Notes


 
Area around M95 (Richard Arthur Field Airport)
 
Road maps at: MapQuest Bing Google
 
Aerial photo
WARNING: Photo may not be current or correct
Aerial photo of M95 (Richard Arthur Field Airport)
Taken late October 2007

Do you have a better or more recent aerial photo of Richard Arthur Field Airport that you would like to share? If so, please send us your photo.

 
Sectional chart

 
Airport distance calculator
Flying to Richard Arthur Field Airport? Find the distance to fly.

From to M95

Sunrise and sunset
Times for 24-Sep-2017
 Local
(UTC-5)
 Zulu
(UTC)
Morning civil twilight06:1711:17
Sunrise06:4211:42
Sunset18:4523:45
Evening civil twilight19:1000:10

Current date and time
Zulu (UTC)  25-Sep-2017 04:09:58
Local (UTC-5)  24-Sep-2017 23:09:58
 
METAR
KJFX 
28nm NE 
250355Z AUTO 00000KT 6SM BR CLR 20/20 A3000 RMK AO2 PWINO
KTCL 
31nm S 
250353Z AUTO 00000KT 10SM CLR 23/21 A2997 RMK AO2 SLP147 T02280211
KCBM 
32nm W 
250356Z AUTO 00000KT 10SM CLR 21/21 A2996 RMK AO2 SLP146 T02070207 TSNO $
K1M4 
36nm N 
250356Z AUTO 00000KT 5SM BR CLR 20/20 A3003 RMK AO2 SLP177 T02000200
KGTR 
41nm W 
250050Z 00000KT 10SM SKC 26/19 A2996
TAF
KTCL 
31nm S 
241929Z 2419/2518 09009KT P6SM VCTS SCT040CB FM250000 07002KT P6SM SCT150 FM251500 07007KT P6SM SCT050
KCBM 
32nm W 
242135Z 2421/2523 12009KT 9999 SCT040 QNH2997INS BECMG 2500/2501 VRB06KT 9999 FEW050 QNH2996INS BECMG 2508/2509 VRB03KT 8000 BR FEW040 QNH2995INS BECMG 2512/2513 11006KT 9999 NSW FEW050 QNH2994INS BECMG 2517/2518 12006KT 9999 SCT050 QNH2993INS TX32/2421Z TN20/2511Z LAST NO AMDS AFT 2421 NEXT 2509
NOTAMs
Click for the latest NOTAMs
NOTAMs are issued by the DoD/FAA and will open in a separate window not controlled by AirNav.

 

 
 

Would you like to see your business listed on this page?

 If your business provides an interesting product or service to pilots, flight crews, aircraft, or users of the Richard Arthur Field Airport, you should consider listing it here.  To start the listing process, click on the button below
 
Add a business
 

Other Pages about Richard Arthur Field Airport

Update a link
 
Copyright © AirNav, LLC. All rights reserved. Privacy Policy  Contact